createdAt,value
2022-08-03T00:01:41.623Z,14.62
2022-08-03T00:05:36.352Z,14.50
2022-08-03T00:08:57.735Z,14.39
2022-08-03T00:12:36.344Z,14.36
2022-08-03T00:16:11.256Z,14.40
2022-08-03T00:19:48.068Z,14.43
2022-08-03T00:23:52.208Z,14.43
2022-08-03T00:27:16.709Z,14.44
2022-08-03T00:31:09.260Z,14.43
2022-08-03T00:34:57.238Z,14.37
2022-08-03T00:38:16.145Z,14.30
2022-08-03T00:41:52.759Z,14.29
2022-08-03T00:45:34.620Z,14.26
2022-08-03T00:49:06.591Z,14.23
2022-08-03T00:52:43.296Z,14.27
2022-08-03T00:56:40.413Z,14.30
2022-08-03T01:00:25.148Z,14.27
2022-08-03T01:03:57.556Z,14.23
2022-08-03T01:07:52.941Z,14.20
2022-08-03T01:11:32.470Z,14.20
2022-08-03T01:15:43.801Z,14.16
2022-08-03T01:19:29.069Z,14.08
2022-08-03T01:23:05.875Z,14.02
2022-08-03T01:26:55.884Z,14.02
2022-08-03T01:30:17.516Z,14.02
2022-08-03T01:34:00.746Z,13.99
2022-08-03T01:37:45.454Z,13.95
2022-08-03T01:41:13.797Z,13.93
2022-08-03T01:44:45.534Z,13.86
2022-08-03T01:48:22.038Z,13.80
2022-08-03T01:52:19.904Z,13.74
2022-08-03T01:55:42.059Z,13.70
2022-08-03T01:59:20.499Z,13.70
2022-08-03T02:02:56.242Z,13.68
2022-08-03T02:07:02.731Z,13.68
2022-08-03T02:10:35.631Z,13.69
2022-08-03T02:14:04.142Z,13.61
2022-08-03T02:17:58.945Z,13.58
2022-08-03T02:21:57.172Z,13.57
2022-08-03T02:25:03.010Z,13.54
2022-08-03T02:28:43.610Z,13.53
2022-08-03T02:32:21.422Z,13.52
2022-08-03T02:35:55.220Z,13.50
2022-08-03T02:39:33.448Z,13.35
2022-08-03T02:43:29.247Z,13.22
2022-08-03T02:47:12.631Z,13.22
2022-08-03T02:50:48.781Z,13.24
2022-08-03T02:54:25.393Z,13.27
2022-08-03T02:58:20.848Z,13.29
2022-08-03T03:01:42.101Z,13.29
2022-08-03T03:05:52.134Z,13.25
2022-08-03T03:09:01.233Z,13.24
2022-08-03T03:12:39.145Z,13.21
2022-08-03T03:16:15.591Z,13.23
2022-08-03T03:20:10.916Z,13.28
2022-08-03T03:23:32.420Z,13.33
2022-08-03T03:27:27.536Z,13.36
2022-08-03T03:30:52.605Z,13.38
2022-08-03T03:34:25.572Z,13.41
2022-08-03T03:38:02.056Z,13.41
2022-08-03T03:41:59.428Z,13.46
2022-08-03T03:45:21.958Z,13.53
2022-08-03T03:48:57.005Z,13.58
2022-08-03T03:52:34.286Z,13.64
2022-08-03T03:56:10.622Z,13.71
2022-08-03T03:59:47.359Z,13.79
2022-08-03T04:03:24.568Z,13.88
2022-08-03T04:07:19.681Z,13.92
2022-08-03T04:11:10.492Z,13.95
2022-08-03T04:14:37.586Z,13.95
2022-08-03T04:18:12.681Z,13.96
2022-08-03T04:22:09.111Z,14.06
2022-08-03T04:25:51.457Z,14.23
2022-08-03T04:29:14.854Z,14.32
2022-08-03T04:32:52.055Z,14.43
2022-08-03T04:36:28.099Z,14.56
2022-08-03T04:40:32.419Z,14.66
2022-08-03T04:43:56.386Z,14.78
2022-08-03T04:47:33.344Z,14.88
2022-08-03T04:51:06.957Z,15.03
2022-08-03T04:54:50.675Z,15.16
2022-08-03T04:58:39.533Z,15.29
2022-08-03T05:02:00.514Z,15.46
2022-08-03T05:05:50.086Z,15.59
2022-08-03T05:09:14.132Z,15.70
2022-08-03T05:12:51.782Z,15.85
2022-08-03T05:16:27.914Z,16.03
2022-08-03T05:20:23.295Z,16.18
2022-08-03T05:23:45.071Z,16.34
2022-08-03T05:27:20.852Z,16.47
2022-08-03T05:30:57.807Z,16.58
2022-08-03T05:34:34.662Z,16.67
2022-08-03T05:38:34.240Z,16.78
2022-08-03T05:41:56.036Z,16.91
2022-08-03T05:45:33.093Z,17.02
2022-08-03T05:49:28.418Z,17.17
2022-08-03T05:52:49.129Z,17.29
2022-08-03T05:56:45.776Z,17.42
2022-08-03T06:00:25.738Z,17.58
2022-08-03T06:03:46.512Z,17.73
2022-08-03T06:07:23.539Z,17.83
2022-08-03T06:11:00.128Z,17.92
2022-08-03T06:14:36.811Z,18.02
2022-08-03T06:18:13.687Z,18.14
2022-08-03T06:21:50.466Z,18.21
2022-08-03T06:25:27.680Z,18.28
2022-08-03T06:29:04.096Z,18.32
2022-08-03T06:33:00.732Z,18.37
2022-08-03T06:36:21.749Z,18.42
2022-08-03T06:39:58.987Z,18.47
2022-08-03T06:43:37.956Z,18.50
2022-08-03T06:47:12.201Z,18.56
2022-08-03T06:50:48.894Z,18.61
2022-08-03T06:54:44.461Z,18.68
2022-08-03T06:58:05.204Z,18.75
2022-08-03T07:01:41.997Z,18.83
2022-08-03T07:05:38.619Z,18.93
2022-08-03T07:08:59.829Z,19.10
2022-08-03T07:12:37.146Z,19.23
2022-08-03T07:16:17.811Z,19.34
2022-08-03T07:19:54.515Z,19.46
2022-08-03T07:23:50.361Z,19.60
2022-08-03T07:27:11.742Z,19.73
2022-08-03T07:30:48.101Z,19.86
2022-08-03T07:34:25.785Z,20.04
2022-08-03T07:38:01.879Z,20.18
2022-08-03T07:41:38.476Z,20.33
2022-08-03T07:45:34.084Z,20.48
2022-08-03T07:48:55.072Z,20.63
2022-08-03T07:52:50.201Z,20.77
2022-08-03T07:56:12.332Z,20.86
2022-08-03T08:00:16.079Z,20.99
2022-08-03T08:03:55.685Z,21.18
2022-08-03T08:07:35.714Z,21.39
2022-08-03T08:10:57.910Z,21.59
2022-08-03T08:14:33.127Z,21.75
2022-08-03T08:18:09.883Z,21.89
2022-08-03T08:21:53.105Z,22.02
2022-08-03T08:25:23.759Z,22.07
2022-08-03T08:29:00.284Z,22.23
2022-08-03T08:32:37.589Z,22.43
2022-08-03T08:36:33.833Z,22.64
2022-08-03T08:39:56.679Z,22.80
2022-08-03T08:43:31.611Z,22.89
2022-08-03T08:47:09.426Z,22.93
2022-08-03T08:50:53.611Z,23.08
2022-08-03T08:54:23.413Z,23.28
2022-08-03T08:58:13.033Z,23.41
2022-08-03T09:01:42.937Z,23.55
2022-08-03T09:05:31.488Z,23.62
2022-08-03T09:10:01.232Z,23.72
2022-08-03T09:13:21.389Z,23.78
2022-08-03T09:17:00.708Z,23.89
2022-08-03T09:20:24.355Z,23.98
2022-08-03T09:24:03.329Z,24.12
2022-08-03T09:27:54.589Z,24.27
2022-08-03T09:31:15.488Z,24.38
2022-08-03T09:34:57.876Z,24.40
2022-08-03T09:39:05.811Z,24.46
2022-08-03T09:42:27.569Z,24.62
2022-08-03T09:46:05.511Z,24.74
2022-08-03T09:49:42.403Z,24.78
2022-08-03T09:53:19.072Z,24.72
2022-08-03T09:56:54.352Z,24.68
2022-08-03T10:00:30.426Z,24.67
2022-08-03T10:04:16.866Z,24.62
2022-08-03T10:08:18.165Z,24.68
2022-08-03T10:11:42.615Z,24.93
2022-08-03T10:16:23.717Z,25.22
2022-08-03T10:18:59.523Z,25.51
2022-08-03T10:22:37.320Z,25.58
2022-08-03T10:26:16.398Z,25.70
2022-08-03T10:29:53.840Z,26.03
2022-08-03T10:33:51.389Z,26.31
2022-08-03T10:37:17.662Z,26.51
2022-08-03T10:40:58.947Z,26.69
2022-08-03T10:44:33.984Z,26.88
2022-08-03T10:48:24.873Z,26.93
2022-08-03T10:51:53.411Z,26.83
2022-08-03T10:55:56.986Z,26.92
2022-08-03T10:59:45.162Z,27.13
2022-08-03T11:03:16.846Z,27.32
2022-08-03T11:06:44.101Z,27.45
2022-08-03T11:10:33.435Z,27.51
2022-08-03T11:14:13.827Z,27.46
2022-08-03T11:17:46.746Z,27.48
2022-08-03T11:21:17.850Z,27.48
2022-08-03T11:24:57.763Z,27.53
2022-08-03T11:28:50.107Z,27.70
2022-08-03T11:32:11.105Z,27.85
2022-08-03T11:36:07.417Z,27.82
2022-08-03T11:39:45.973Z,27.84
2022-08-03T11:43:31.288Z,27.93
2022-08-03T11:46:52.768Z,28.03
2022-08-03T11:50:37.962Z,28.17
2022-08-03T11:54:08.105Z,28.18
2022-08-03T11:59:15.241Z,28.20
2022-08-03T12:02:07.887Z,28.52
2022-08-03T12:05:39.197Z,28.79
2022-08-03T12:09:16.309Z,29.09
2022-08-03T12:12:46.361Z,29.50
2022-08-03T12:16:23.900Z,29.77
2022-08-03T12:20:34.910Z,29.86
2022-08-03T12:24:01.179Z,30.19
2022-08-03T12:27:33.880Z,30.27
2022-08-03T12:31:10.254Z,30.24
2022-08-03T12:34:49.027Z,30.13
2022-08-03T12:38:23.862Z,29.80
2022-08-03T12:42:19.782Z,30.17
2022-08-03T12:45:41.084Z,30.65
2022-08-03T12:49:19.255Z,31.00
2022-08-03T12:52:54.956Z,31.33
2022-08-03T12:56:57.067Z,31.50
2022-08-03T13:00:29.174Z,31.57
2022-08-03T13:04:35.487Z,31.59
2022-08-03T13:07:57.194Z,31.77
2022-08-03T13:12:09.936Z,31.37
2022-08-03T13:15:49.583Z,30.98
2022-08-03T13:19:15.393Z,31.04
2022-08-03T13:22:48.392Z,31.25
2022-08-03T13:26:24.128Z,31.40
2022-08-03T13:30:00.981Z,31.47
2022-08-03T13:33:56.668Z,31.73
2022-08-03T13:37:17.980Z,32.11
2022-08-03T13:40:54.788Z,32.36
2022-08-03T13:44:32.564Z,32.63
2022-08-03T13:48:37.247Z,32.88
2022-08-03T13:51:58.918Z,32.93
2022-08-03T13:55:35.736Z,33.10
2022-08-03T13:59:31.064Z,33.28
2022-08-03T14:03:14.122Z,33.31
2022-08-03T14:06:35.406Z,33.37
2022-08-03T14:10:12.213Z,33.30
2022-08-03T14:13:49.033Z,33.25
2022-08-03T14:17:25.816Z,33.32
2022-08-03T14:21:07.310Z,33.22
2022-08-03T14:24:39.608Z,32.90
2022-08-03T14:28:16.236Z,32.85
2022-08-03T14:32:09.893Z,32.96
2022-08-03T14:35:53.513Z,33.03
2022-08-03T14:43:14.586Z,33.01
2022-08-03T14:46:50.492Z,33.21
2022-08-03T14:50:42.898Z,32.90
2022-08-03T14:54:24.661Z,32.56
2022-08-03T14:57:45.490Z,32.11
2022-08-03T15:02:02.387Z,32.12
2022-08-03T15:05:04.706Z,32.67
2022-08-03T15:08:40.054Z,33.09
2022-08-03T15:12:16.873Z,33.51
2022-08-03T15:16:12.458Z,33.99
2022-08-03T15:20:00.342Z,34.42
2022-08-03T15:23:33.069Z,34.66
2022-08-03T15:26:54.064Z,34.68
2022-08-03T15:30:51.906Z,34.78
2022-08-03T15:34:31.425Z,35.02
2022-08-03T15:37:52.324Z,34.90
2022-08-03T15:41:28.967Z,34.76
2022-08-03T15:45:24.476Z,34.72
2022-08-03T15:49:07.695Z,34.44
2022-08-03T15:52:47.499Z,34.43
2022-08-03T15:56:14.220Z,34.44
2022-08-03T16:00:10.257Z,34.40
2022-08-03T16:03:34.665Z,34.02
2022-08-03T16:07:58.580Z,33.94
2022-08-03T16:11:23.427Z,33.97
2022-08-03T16:15:18.961Z,33.81
2022-08-03T16:18:40.062Z,33.87
2022-08-03T16:22:19.595Z,33.96
2022-08-03T16:26:12.076Z,33.98
2022-08-03T16:29:32.889Z,34.00
2022-08-03T16:33:11.280Z,34.05
2022-08-03T16:36:46.623Z,34.10
2022-08-03T16:40:25.142Z,34.08
2022-08-03T16:44:00.184Z,33.99
2022-08-03T16:47:37.083Z,33.93
2022-08-03T16:51:13.820Z,33.81
2022-08-03T16:54:52.726Z,33.53
2022-08-03T16:58:41.405Z,33.21
2022-08-03T17:02:10.162Z,33.19
2022-08-03T17:05:47.014Z,33.08
2022-08-03T17:09:21.548Z,32.86
2022-08-03T17:12:55.135Z,32.54
2022-08-03T17:16:31.495Z,32.16
2022-08-03T17:20:15.780Z,31.83
2022-08-03T17:24:12.348Z,31.58
2022-08-03T17:28:49.098Z,31.16
2022-08-03T17:31:23.373Z,30.69
2022-08-03T17:34:55.406Z,30.21
2022-08-03T17:38:31.895Z,29.64
2022-08-03T17:42:30.323Z,29.07
2022-08-03T17:45:54.873Z,28.49
2022-08-03T17:49:31.132Z,27.92
2022-08-03T17:53:28.619Z,27.45
2022-08-03T17:57:22.424Z,26.90
2022-08-03T18:02:05.657Z,26.47
2022-08-03T18:05:00.508Z,26.08
2022-08-03T18:08:49.819Z,25.78
2022-08-03T18:12:36.539Z,25.40
2022-08-03T18:16:02.475Z,24.99
2022-08-03T18:20:03.211Z,24.65
2022-08-03T18:27:03.285Z,24.09
2022-08-03T18:30:54.712Z,23.89
2022-08-03T18:34:32.656Z,23.61
2022-08-03T18:37:58.149Z,23.26
2022-08-03T18:41:34.613Z,22.97
2022-08-03T18:45:57.123Z,22.76
2022-08-03T18:49:48.287Z,22.51
2022-08-03T18:54:02.225Z,22.25
2022-08-03T18:57:16.529Z,22.06
2022-08-03T19:01:57.403Z,21.82
2022-08-03T19:05:10.672Z,21.54
2022-08-03T19:08:47.925Z,21.41
2022-08-03T19:12:30.752Z,21.34
2022-08-03T19:15:57.845Z,21.28
2022-08-03T19:19:44.470Z,21.21
2022-08-03T19:23:33.954Z,21.13
2022-08-03T19:26:56.051Z,21.02
2022-08-03T19:30:54.648Z,20.92
2022-08-03T19:34:17.701Z,20.82
2022-08-03T19:37:52.641Z,20.72
2022-08-03T19:41:42.336Z,20.61
2022-08-03T19:45:11.365Z,20.54
2022-08-03T19:49:14.459Z,20.46
2022-08-03T19:52:57.144Z,20.36
2022-08-03T19:56:24.148Z,20.29
2022-08-03T19:59:56.520Z,20.21
2022-08-03T20:03:43.027Z,20.15
2022-08-03T20:07:08.059Z,20.11
2022-08-03T20:11:04.464Z,20.09
2022-08-03T20:14:28.335Z,20.05
2022-08-03T20:18:23.203Z,19.99
2022-08-03T20:21:46.981Z,19.90
2022-08-03T20:25:58.324Z,19.80
2022-08-03T20:30:04.989Z,19.73
2022-08-03T20:37:22.016Z,19.65
2022-08-03T20:40:59.288Z,19.65
2022-08-03T20:44:36.899Z,19.67
2022-08-03T20:48:13.304Z,19.68
2022-08-03T20:52:18.616Z,19.66
2022-08-03T20:55:47.483Z,19.61
2022-08-03T20:59:28.795Z,19.57
2022-08-03T21:03:00.356Z,19.55
2022-08-03T21:07:01.000Z,19.51
2022-08-03T21:10:44.899Z,19.50
2022-08-03T21:12:57.899Z,24.33
2022-08-03T21:13:07.169Z,19.67
2022-08-03T21:14:15.358Z,19.46
2022-08-03T21:17:47.002Z,19.32
2022-08-03T21:21:23.426Z,19.20
2022-08-03T21:24:57.701Z,19.04
2022-08-03T21:28:32.816Z,18.91
2022-08-03T21:32:32.896Z,18.85
2022-08-03T21:35:54.485Z,18.85
2022-08-03T21:39:30.843Z,18.86
2022-08-03T21:43:08.041Z,18.83
2022-08-03T21:46:45.429Z,18.85
2022-08-03T21:50:22.272Z,18.79
2022-08-03T21:54:03.525Z,18.75
2022-08-03T21:57:37.633Z,18.73
2022-08-03T22:01:13.667Z,18.71
2022-08-03T22:05:07.667Z,18.71
2022-08-03T22:08:28.704Z,18.71
2022-08-03T22:12:05.659Z,18.71
2022-08-03T22:16:01.573Z,18.70
2022-08-03T22:19:23.261Z,18.66
2022-08-03T22:23:21.905Z,18.62
2022-08-03T22:27:03.885Z,18.60
2022-08-03T22:30:47.237Z,18.54
2022-08-03T22:34:08.494Z,18.43
2022-08-03T22:37:49.247Z,18.39
2022-08-03T22:41:41.346Z,18.36
2022-08-03T22:45:06.552Z,18.30
2022-08-03T22:48:41.759Z,18.23
2022-08-03T22:52:18.042Z,18.15
2022-08-03T22:55:54.970Z,18.09
2022-08-03T22:59:49.498Z,18.04
2022-08-03T23:03:10.536Z,18.00
2022-08-03T23:06:51.661Z,18.00
2022-08-03T23:10:47.237Z,17.97
2022-08-03T23:14:13.617Z,17.93
2022-08-03T23:17:57.844Z,17.84
2022-08-03T23:22:00.293Z,17.79
2022-08-03T23:25:04.900Z,17.77
2022-08-03T23:28:45.210Z,17.75
2022-08-03T23:32:37.417Z,17.74
2022-08-03T23:36:29.637Z,17.71
2022-08-03T23:40:07.493Z,17.66
2022-08-03T23:43:51.217Z,17.59
2022-08-03T23:47:14.876Z,17.48
2022-08-03T23:51:00.203Z,17.40
2022-08-03T23:54:49.856Z,17.33
2022-08-03T23:58:59.435Z,17.25
